createdAt,value
2022-10-11T00:01:18.632Z,101643.31
2022-10-11T00:03:45.213Z,101637.19
2022-10-11T00:06:11.756Z,101645.44
2022-10-11T00:08:38.322Z,101648.09
2022-10-11T00:11:06.965Z,101650.06
2022-10-11T00:13:34.093Z,101657.00
2022-10-11T00:16:00.643Z,101656.63
2022-10-11T00:18:27.222Z,101670.56
2022-10-11T00:21:05.648Z,101669.56
2022-10-11T00:23:33.172Z,101676.00
2022-10-11T00:26:01.342Z,101672.84
2022-10-11T00:28:28.236Z,101677.44
2022-10-11T00:30:54.845Z,101686.38
2022-10-11T00:33:21.443Z,101688.75
2022-10-11T00:35:48.734Z,101693.03
2022-10-11T00:38:15.545Z,101691.38
2022-10-11T00:40:42.222Z,101689.56
2022-10-11T00:43:17.274Z,101704.63
2022-10-11T00:46:20.676Z,101697.28
2022-10-11T00:48:55.578Z,101710.81
2022-10-11T00:51:36.448Z,101710.97
2022-10-11T00:54:03.831Z,101713.91
2022-10-11T00:56:34.189Z,101719.34
2022-10-11T00:59:03.529Z,101722.84
2022-10-11T01:01:30.258Z,101723.66
2022-10-11T01:03:57.205Z,101735.25
2022-10-11T01:06:23.802Z,101740.53
2022-10-11T01:08:51.653Z,101749.47
2022-10-11T01:11:20.824Z,101753.91
2022-10-11T01:14:05.834Z,101757.69
2022-10-11T01:16:37.894Z,101760.66
2022-10-11T01:19:21.833Z,101766.75
2022-10-11T01:22:23.305Z,101770.41
2022-10-11T01:25:07.993Z,101778.19
2022-10-11T01:27:36.625Z,101784.06
2022-10-11T01:30:25.354Z,101785.19
2022-10-11T01:33:16.130Z,101790.63
2022-10-11T01:36:02.623Z,101791.09
2022-10-11T01:38:45.832Z,101800.81
2022-10-11T01:41:16.918Z,101803.09
2022-10-11T01:43:44.360Z,101806.88
2022-10-11T01:46:11.340Z,101807.72
2022-10-11T01:48:51.689Z,101807.00
2022-10-11T01:51:20.565Z,101816.91
2022-10-11T01:54:00.177Z,101817.88
2022-10-11T01:57:01.678Z,101820.25
2022-10-11T01:59:37.313Z,101818.88
2022-10-11T02:02:34.663Z,101820.00
2022-10-11T02:05:19.757Z,101828.09
2022-10-11T02:07:57.838Z,101823.22
2022-10-11T02:10:44.446Z,101828.66
2022-10-11T02:13:40.099Z,101828.22
2022-10-11T02:16:12.758Z,101836.16
2022-10-11T02:18:42.010Z,101840.91
2022-10-11T02:21:10.597Z,101846.34
2022-10-11T02:23:42.032Z,101848.00
2022-10-11T02:26:09.917Z,101846.75
2022-10-11T02:28:38.275Z,101844.13
2022-10-11T02:31:06.663Z,101852.50
2022-10-11T02:33:39.686Z,101844.00
2022-10-11T02:36:13.116Z,101856.66
2022-10-11T02:38:48.415Z,101853.56
2022-10-11T02:41:29.723Z,101856.81
2022-10-11T02:44:00.345Z,101860.56
2022-10-11T02:46:30.419Z,101856.53
2022-10-11T02:49:00.745Z,101857.78
2022-10-11T02:51:30.420Z,101856.81
2022-10-11T02:53:57.227Z,101854.16
2022-10-11T02:56:23.762Z,101862.38
2022-10-11T02:58:50.327Z,101865.72
2022-10-11T03:01:16.929Z,101866.13
2022-10-11T03:03:43.534Z,101871.97
2022-10-11T03:06:10.094Z,101878.09
2022-10-11T03:08:36.624Z,101873.78
2022-10-11T03:11:03.168Z,101876.84
2022-10-11T03:13:29.682Z,101884.78
2022-10-11T03:16:03.148Z,101881.47
2022-10-11T03:18:33.944Z,101884.25
2022-10-11T03:21:00.485Z,101880.34
2022-10-11T03:23:27.136Z,101882.59
2022-10-11T03:25:53.740Z,101884.56
2022-10-11T03:28:20.703Z,101888.72
2022-10-11T03:30:51.308Z,101892.19
2022-10-11T03:33:18.215Z,101901.94
2022-10-11T03:35:46.111Z,101904.59
2022-10-11T03:38:14.349Z,101908.47
2022-10-11T03:40:42.161Z,101911.81
2022-10-11T03:43:08.801Z,101914.03
2022-10-11T03:45:35.527Z,101918.78
2022-10-11T03:48:02.592Z,101920.97
2022-10-11T03:50:29.129Z,101928.91
2022-10-11T03:52:55.712Z,101926.84
2022-10-11T03:55:22.237Z,101935.03
2022-10-11T03:57:48.766Z,101937.28
2022-10-11T04:00:15.475Z,101946.31
2022-10-11T04:02:42.018Z,101945.63
2022-10-11T04:05:08.928Z,101946.59
2022-10-11T04:07:35.444Z,101955.78
2022-10-11T04:10:02.010Z,101960.75
2022-10-11T04:12:29.010Z,101963.56
2022-10-11T04:14:55.586Z,101966.91
2022-10-11T04:17:22.123Z,101968.03
2022-10-11T04:19:48.709Z,101974.41
2022-10-11T04:22:15.271Z,101976.22
2022-10-11T04:24:41.823Z,101974.97
2022-10-11T04:27:08.371Z,101961.91
2022-10-11T04:29:34.904Z,101970.38
2022-10-11T04:32:01.458Z,101974.69
2022-10-11T04:34:28.088Z,101974.13
2022-10-11T04:36:54.638Z,101971.47
2022-10-11T04:39:21.261Z,101974.44
2022-10-11T04:41:47.940Z,101979.44
2022-10-11T04:44:14.571Z,101977.06
2022-10-11T04:46:41.211Z,101974.13
2022-10-11T04:49:07.754Z,101984.84
2022-10-11T04:51:34.296Z,101986.25
2022-10-11T04:54:00.843Z,101993.88
2022-10-11T04:56:27.418Z,102005.28
2022-10-11T04:58:54.669Z,102002.06
2022-10-11T05:01:21.386Z,102004.03
2022-10-11T05:03:48.132Z,102003.31
2022-10-11T05:06:14.762Z,102001.09
2022-10-11T05:08:41.627Z,102003.03
2022-10-11T05:11:12.437Z,102002.50
2022-10-11T05:13:40.562Z,102012.53
2022-10-11T05:16:10.811Z,102019.75
2022-10-11T05:18:38.368Z,102021.56
2022-10-11T05:21:14.554Z,102025.59
2022-10-11T05:23:41.232Z,102024.75
2022-10-11T05:26:08.248Z,102022.22
2022-10-11T05:28:35.121Z,102028.38
2022-10-11T05:31:01.701Z,102031.56
2022-10-11T05:33:28.349Z,102038.09
2022-10-11T05:35:54.919Z,102039.84
2022-10-11T05:38:21.677Z,102051.13
2022-10-11T05:40:48.653Z,102045.44
2022-10-11T05:43:15.323Z,102056.53
2022-10-11T05:45:43.936Z,102054.59
2022-10-11T05:48:11.173Z,102056.50
2022-10-11T05:50:38.431Z,102059.69
2022-10-11T05:53:05.359Z,102062.38
2022-10-11T05:55:39.630Z,102069.50
2022-10-11T05:58:06.874Z,102068.13
2022-10-11T06:00:36.797Z,102073.00
2022-10-11T06:03:04.132Z,102084.59
2022-10-11T06:05:30.879Z,102079.94
2022-10-11T06:08:00.162Z,102084.75
2022-10-11T06:10:27.076Z,102091.00
2022-10-11T06:12:53.682Z,102085.88
2022-10-11T06:15:20.281Z,102096.84
2022-10-11T06:17:47.124Z,102104.78
2022-10-11T06:20:14.595Z,102100.47
2022-10-11T06:22:41.242Z,102109.34
2022-10-11T06:25:08.301Z,102112.94
2022-10-11T06:27:34.866Z,102117.41
2022-10-11T06:30:01.463Z,102112.56
2022-10-11T06:32:28.006Z,102115.22
2022-10-11T06:34:54.814Z,102123.88
2022-10-11T06:37:21.353Z,102126.81
2022-10-11T06:39:48.042Z,102124.69
2022-10-11T06:42:14.568Z,102135.13
2022-10-11T06:44:41.107Z,102134.25
2022-10-11T06:47:08.666Z,102136.38
2022-10-11T06:49:35.452Z,102139.59
2022-10-11T06:52:02.065Z,102131.78
2022-10-11T06:54:28.594Z,102144.16
2022-10-11T06:56:55.150Z,102150.53
2022-10-11T06:59:21.701Z,102144.81
2022-10-11T07:01:48.256Z,102152.63
2022-10-11T07:04:14.798Z,102158.16
2022-10-11T07:06:41.660Z,102161.22
2022-10-11T07:09:08.773Z,102161.78
2022-10-11T07:11:35.541Z,102172.09
2022-10-11T07:14:07.589Z,102169.59
2022-10-11T07:16:36.198Z,102172.97
2022-10-11T07:19:04.218Z,102177.41
2022-10-11T07:21:32.038Z,102182.19
2022-10-11T07:23:58.998Z,102180.78
2022-10-11T07:26:25.765Z,102178.03
2022-10-11T07:28:52.379Z,102179.41
2022-10-11T07:31:21.891Z,102185.50
2022-10-11T07:33:48.882Z,102192.78
2022-10-11T07:36:15.738Z,102198.38
2022-10-11T07:38:43.531Z,102195.22
2022-10-11T07:41:11.268Z,102197.72
2022-10-11T07:43:38.668Z,102207.56
2022-10-11T07:46:06.082Z,102210.09
2022-10-11T07:48:34.624Z,102205.50
2022-10-11T07:51:04.734Z,102209.97
2022-10-11T07:53:31.315Z,102211.75
2022-10-11T07:56:02.243Z,102205.25
2022-10-11T07:58:29.159Z,102206.22
2022-10-11T08:00:55.779Z,102214.31
2022-10-11T08:03:22.697Z,102212.25
2022-10-11T08:05:49.430Z,102214.75
2022-10-11T08:08:15.998Z,102211.69
2022-10-11T08:10:42.620Z,102212.16
2022-10-11T08:13:09.201Z,102212.97
2022-10-11T08:15:36.067Z,102215.22
2022-10-11T08:18:02.636Z,102215.66
2022-10-11T08:20:31.101Z,102213.69
2022-10-11T08:22:57.672Z,102219.28
2022-10-11T08:25:24.255Z,102222.47
2022-10-11T08:27:50.816Z,102225.25
2022-10-11T08:30:17.534Z,102224.13
2022-10-11T08:32:44.094Z,102229.44
2022-10-11T08:35:10.626Z,102232.22
2022-10-11T08:37:37.299Z,102225.41
2022-10-11T08:40:05.860Z,102235.19
2022-10-11T08:42:38.950Z,102233.38
2022-10-11T08:45:12.104Z,102236.50
2022-10-11T08:47:41.190Z,102240.41
2022-10-11T08:50:14.675Z,102242.75
2022-10-11T08:52:59.987Z,102242.50
2022-10-11T08:55:34.837Z,102244.69
2022-10-11T08:58:01.993Z,102246.47
2022-10-11T09:00:31.648Z,102246.47
2022-10-11T09:03:09.384Z,102251.06
2022-10-11T09:05:45.905Z,102250.38
2022-10-11T09:08:22.375Z,102250.38
2022-10-11T09:11:23.040Z,102249.25
2022-10-11T09:14:08.338Z,102251.50
2022-10-11T09:16:57.574Z,102253.34
2022-10-11T09:19:51.717Z,102257.06
2022-10-11T09:22:43.250Z,102255.00
2022-10-11T09:25:25.922Z,102250.28
2022-10-11T09:28:17.838Z,102252.66
2022-10-11T09:30:49.117Z,102254.31
2022-10-11T09:33:21.558Z,102260.16
2022-10-11T09:35:50.694Z,102252.81
2022-10-11T09:38:36.646Z,102266.47
2022-10-11T09:41:05.509Z,102262.16
2022-10-11T09:43:32.041Z,102252.25
2022-10-11T09:45:58.681Z,102255.06
2022-10-11T09:48:28.744Z,102256.59
2022-10-11T09:51:02.021Z,102255.47
2022-10-11T09:53:51.974Z,102265.78
2022-10-11T09:56:18.686Z,102259.09
2022-10-11T09:58:45.277Z,102255.31
2022-10-11T10:01:13.999Z,102262.16
2022-10-11T10:03:42.290Z,102264.84
2022-10-11T10:06:23.680Z,102259.78
2022-10-11T10:08:50.678Z,102259.41
2022-10-11T10:11:18.712Z,102266.94
2022-10-11T10:13:51.861Z,102265.09
2022-10-11T10:16:25.646Z,102262.06
2022-10-11T10:18:56.037Z,102265.09
2022-10-11T10:21:44.129Z,102269.97
2022-10-11T10:24:29.119Z,102275.97
2022-10-11T10:27:22.725Z,102264.66
2022-10-11T10:30:10.293Z,102266.06
2022-10-11T10:32:52.216Z,102268.97
2022-10-11T10:35:46.671Z,102271.06
2022-10-11T10:38:26.364Z,102275.97
2022-10-11T10:41:09.350Z,102273.06
2022-10-11T10:43:37.999Z,102267.84
2022-10-11T10:46:23.306Z,102266.19
2022-10-11T10:49:41.122Z,102275.13
2022-10-11T10:52:20.785Z,102268.00
2022-10-11T10:55:05.542Z,102277.78
2022-10-11T10:58:07.146Z,102277.25
2022-10-11T11:00:42.544Z,102271.09
2022-10-11T11:03:16.617Z,102263.28
2022-10-11T11:05:51.050Z,102265.38
2022-10-11T11:08:38.954Z,102264.97
2022-10-11T11:11:24.179Z,102262.44
2022-10-11T11:14:11.545Z,102264.44
2022-10-11T11:16:47.920Z,102262.44
2022-10-11T11:19:26.999Z,102266.22
2022-10-11T11:22:02.189Z,102262.03
2022-10-11T11:24:34.605Z,102264.25
2022-10-11T11:27:13.124Z,102259.81
2022-10-11T11:30:05.463Z,102266.78
2022-10-11T11:32:52.174Z,102266.94
2022-10-11T11:35:33.542Z,102267.47
2022-10-11T11:38:43.577Z,102253.81
2022-10-11T11:41:26.040Z,102258.84
2022-10-11T11:43:57.178Z,102255.22
2022-10-11T11:46:29.376Z,102259.38
2022-10-11T11:48:58.698Z,102258.72
2022-10-11T11:51:31.550Z,102261.06
2022-10-11T11:54:06.079Z,102254.94
2022-10-11T11:57:04.692Z,102255.63
2022-10-11T11:59:31.146Z,102252.28
2022-10-11T12:02:12.957Z,102252.03
2022-10-11T12:04:42.297Z,102250.91
2022-10-11T12:07:16.405Z,102239.88
2022-10-11T12:09:46.114Z,102233.44
2022-10-11T12:12:29.471Z,102230.53
2022-10-11T12:15:25.730Z,102239.03
2022-10-11T12:17:55.854Z,102242.38
2022-10-11T12:20:29.179Z,102241.53
2022-10-11T12:22:58.421Z,102242.38
2022-10-11T12:25:28.660Z,102251.44
2022-10-11T12:28:00.332Z,102247.00
2022-10-11T12:30:48.278Z,102246.84
2022-10-11T12:33:32.202Z,102232.63
2022-10-11T12:36:05.710Z,102237.94
2022-10-11T12:38:37.850Z,102244.03
2022-10-11T12:41:10.379Z,102248.66
2022-10-11T12:44:17.030Z,102242.66
2022-10-11T12:47:12.913Z,102244.19
2022-10-11T12:50:06.754Z,102236.78
2022-10-11T12:52:52.134Z,102239.44
2022-10-11T12:55:22.932Z,102227.97
2022-10-11T12:58:07.445Z,102231.31
2022-10-11T13:00:41.588Z,102237.59
2022-10-11T13:03:35.339Z,102236.59
2022-10-11T13:06:27.768Z,102247.59
2022-10-11T13:08:58.770Z,102239.22
2022-10-11T13:11:29.976Z,102239.31
2022-10-11T13:14:13.261Z,102234.13
2022-10-11T13:17:00.958Z,102229.78
2022-10-11T13:19:28.514Z,102237.28
2022-10-11T13:21:58.165Z,102239.66
2022-10-11T13:24:26.172Z,102241.69
2022-10-11T13:26:55.334Z,102239.59
2022-10-11T13:29:34.109Z,102239.28
2022-10-11T13:32:08.264Z,102239.63
2022-10-11T13:34:38.473Z,102240.34
2022-10-11T13:37:05.957Z,102243.44
2022-10-11T13:39:38.176Z,102231.09
2022-10-11T13:42:10.839Z,102230.78
2022-10-11T13:44:38.580Z,102239.34
2022-10-11T13:47:05.446Z,102236.09
2022-10-11T13:49:37.697Z,102237.56
2022-10-11T13:52:26.977Z,102231.81
2022-10-11T13:54:53.505Z,102229.00
2022-10-11T13:57:21.927Z,102228.72
2022-10-11T13:59:48.479Z,102224.53
2022-10-11T14:02:18.513Z,102226.66
2022-10-11T14:04:45.079Z,102232.38
2022-10-11T14:07:31.821Z,102229.28
2022-10-11T14:09:58.423Z,102230.28
2022-10-11T14:12:43.258Z,102234.44
2022-10-11T14:15:26.329Z,102229.88
2022-10-11T14:17:53.132Z,102230.16
2022-10-11T14:20:29.535Z,102229.63
2022-10-11T14:22:58.871Z,102234.69
2022-10-11T14:25:25.428Z,102225.88
2022-10-11T14:27:52.038Z,102222.56
2022-10-11T14:30:26.205Z,102230.94
2022-10-11T14:32:55.525Z,102231.22
2022-10-11T14:35:24.756Z,102232.34
2022-10-11T14:37:51.960Z,102228.88
2022-10-11T14:40:21.608Z,102227.19
2022-10-11T14:42:48.432Z,102224.97
2022-10-11T14:45:15.041Z,102227.78
2022-10-11T14:47:43.166Z,102226.25
2022-10-11T14:50:37.527Z,102229.19
2022-10-11T14:53:04.776Z,102229.31
2022-10-11T14:55:31.654Z,102238.41
2022-10-11T14:57:58.399Z,102232.16
2022-10-11T15:00:26.851Z,102239.38
2022-10-11T15:02:53.912Z,102234.94
2022-10-11T15:05:21.927Z,102241.91
2022-10-11T15:07:48.899Z,102236.00
2022-10-11T15:10:22.221Z,102237.38
2022-10-11T15:12:50.129Z,102236.50
2022-10-11T15:15:22.405Z,102235.81
2022-10-11T15:17:54.789Z,102234.47
2022-10-11T15:20:34.181Z,102236.16
2022-10-11T15:23:01.376Z,102233.09
2022-10-11T15:25:29.083Z,102239.13
2022-10-11T15:27:56.534Z,102245.41
2022-10-11T15:30:25.458Z,102236.88
2022-10-11T15:32:52.779Z,102229.50
2022-10-11T15:35:20.602Z,102229.81
2022-10-11T15:37:47.314Z,102230.88
2022-10-11T15:40:20.024Z,102228.56
2022-10-11T15:42:46.909Z,102239.97
2022-10-11T15:45:13.545Z,102237.31
2022-10-11T15:47:40.192Z,102241.22
2022-10-11T15:50:39.281Z,102246.53
2022-10-11T15:53:15.814Z,102242.34
2022-10-11T15:55:46.659Z,102244.59
2022-10-11T15:58:13.512Z,102243.19
2022-10-11T16:00:40.264Z,102243.78
2022-10-11T16:03:07.136Z,102251.31
2022-10-11T16:05:33.806Z,102254.22
2022-10-11T16:08:00.413Z,102257.88
2022-10-11T16:10:27.011Z,102262.03
2022-10-11T16:12:53.656Z,102264.69
2022-10-11T16:15:20.196Z,102259.81
2022-10-11T16:17:47.118Z,102264.97
2022-10-11T16:20:14.182Z,102259.69
2022-10-11T16:22:41.357Z,102266.47
2022-10-11T16:25:07.938Z,102266.91
2022-10-11T16:27:34.783Z,102265.50
2022-10-11T16:30:01.458Z,102271.63
2022-10-11T16:32:28.438Z,102271.63
2022-10-11T16:34:54.978Z,102272.47
2022-10-11T16:37:21.574Z,102275.25
2022-10-11T16:39:48.155Z,102283.88
2022-10-11T16:42:14.782Z,102279.84
2022-10-11T16:44:41.324Z,102280.22
2022-10-11T16:47:07.910Z,102284.44
2022-10-11T16:49:34.858Z,102281.41
2022-10-11T16:52:03.862Z,102278.75
2022-10-11T16:54:31.011Z,102292.25
2022-10-11T16:56:58.534Z,102285.00
2022-10-11T16:59:25.497Z,102284.88
2022-10-11T17:01:52.054Z,102283.75
2022-10-11T17:04:18.743Z,102287.38
2022-10-11T17:06:45.362Z,102292.22
2022-10-11T17:09:11.971Z,102294.44
2022-10-11T17:11:38.679Z,102296.41
2022-10-11T17:14:06.187Z,102295.69
2022-10-11T17:16:32.903Z,102297.22
2022-10-11T17:18:59.539Z,102298.63
2022-10-11T17:21:26.120Z,102292.31
2022-10-11T17:23:52.760Z,102299.09
2022-10-11T17:26:23.231Z,102305.03
2022-10-11T17:28:50.000Z,102302.13
2022-10-11T17:31:17.122Z,102304.94
2022-10-11T17:33:43.689Z,102306.75
2022-10-11T17:36:23.041Z,102301.88
2022-10-11T17:38:51.253Z,102309.47
2022-10-11T17:41:18.335Z,102303.91
2022-10-11T17:43:45.088Z,102311.72
2022-10-11T17:46:12.975Z,102312.69
2022-10-11T17:48:39.606Z,102309.41
2022-10-11T17:51:11.265Z,102309.38
2022-10-11T17:53:38.123Z,102306.88
2022-10-11T17:56:14.206Z,102310.16
2022-10-11T17:58:41.037Z,102312.53
2022-10-11T18:01:10.821Z,102302.69
2022-10-11T18:03:37.976Z,102307.38
2022-10-11T18:06:09.836Z,102310.31
2022-10-11T18:08:40.603Z,102309.72
2022-10-11T18:11:12.609Z,102313.56
2022-10-11T18:13:42.398Z,102307.25
2022-10-11T18:16:10.705Z,102302.50
2022-10-11T18:18:37.967Z,102304.34
2022-10-11T18:21:04.765Z,102309.41
2022-10-11T18:23:31.644Z,102303.75
2022-10-11T18:25:58.204Z,102301.66
2022-10-11T18:28:24.862Z,102307.81
2022-10-11T18:30:53.122Z,102314.03
2022-10-11T18:33:19.671Z,102306.25
2022-10-11T18:35:46.198Z,102308.19
2022-10-11T18:38:12.713Z,102306.19
2022-10-11T18:40:43.423Z,102311.47
2022-10-11T18:43:13.099Z,102306.41
2022-10-11T18:45:39.616Z,102307.09
2022-10-11T18:48:08.424Z,102303.97
2022-10-11T18:50:35.582Z,102299.91
2022-10-11T18:55:29.731Z,102309.09
2022-10-11T18:57:56.358Z,102302.69
2022-10-11T19:00:40.046Z,102300.72
2022-10-11T19:03:07.529Z,102304.94
2022-10-11T19:05:34.151Z,102301.19
2022-10-11T19:08:00.798Z,102301.91
2022-10-11T19:10:27.342Z,102305.66
2022-10-11T19:12:55.451Z,102303.00
2022-10-11T19:15:26.464Z,102301.34
2022-10-11T19:17:55.137Z,102300.34
2022-10-11T19:20:21.870Z,102296.28
2022-10-11T19:22:48.470Z,102298.00
2022-10-11T19:25:15.212Z,102294.63
2022-10-11T19:27:41.737Z,102299.22
2022-10-11T19:30:09.036Z,102296.16
2022-10-11T19:32:35.651Z,102295.69
2022-10-11T19:35:02.208Z,102289.59
2022-10-11T19:37:28.985Z,102290.38
2022-10-11T19:39:55.750Z,102294.34
2022-10-11T19:42:22.343Z,102294.25
2022-10-11T19:44:48.894Z,102296.31
2022-10-11T19:47:16.273Z,102297.47
2022-10-11T19:49:42.822Z,102299.84
2022-10-11T19:52:09.534Z,102292.47
2022-10-11T19:54:36.064Z,102296.16
2022-10-11T19:57:02.869Z,102296.78
2022-10-11T19:59:29.442Z,102295.13
2022-10-11T20:01:55.990Z,102298.34
2022-10-11T20:04:50.533Z,102303.38
2022-10-11T20:07:11.070Z,102302.69
2022-10-11T20:09:37.629Z,102306.44
2022-10-11T20:12:04.393Z,102304.59
2022-10-11T20:14:30.965Z,102305.59
2022-10-11T20:16:57.500Z,102305.84
2022-10-11T20:19:30.721Z,102306.13
2022-10-11T20:21:58.758Z,102308.47
2022-10-11T20:24:27.425Z,102312.34
2022-10-11T20:26:54.326Z,102307.25
2022-10-11T20:29:20.864Z,102310.88
2022-10-11T20:31:47.403Z,102317.31
2022-10-11T20:34:13.987Z,102310.13
2022-10-11T20:36:40.681Z,102316.97
2022-10-11T20:39:07.273Z,102313.34
2022-10-11T20:41:37.050Z,102312.50
2022-10-11T20:44:03.908Z,102314.19
2022-10-11T20:46:32.857Z,102309.72
2022-10-11T20:49:02.383Z,102313.47
2022-10-11T20:51:33.869Z,102315.13
2022-10-11T20:54:02.071Z,102306.25
2022-10-11T20:56:29.704Z,102309.84
2022-10-11T20:58:57.159Z,102314.31
2022-10-11T21:01:35.557Z,102311.66
2022-10-11T21:04:02.459Z,102310.81
2022-10-11T21:06:30.151Z,102312.66
2022-10-11T21:08:58.938Z,102313.75
2022-10-11T21:11:31.194Z,102310.81
2022-10-11T21:13:59.020Z,102312.09
2022-10-11T21:16:26.139Z,102318.25
2022-10-11T21:18:54.064Z,102319.19
2022-10-11T21:21:21.090Z,102320.16
2022-10-11T21:23:47.605Z,102325.03
2022-10-11T21:26:16.737Z,102318.25
2022-10-11T21:28:44.963Z,102315.47
2022-10-11T21:31:14.338Z,102325.91
2022-10-11T21:33:42.207Z,102318.22
2022-10-11T21:36:11.386Z,102328.47
2022-10-11T21:38:38.286Z,102322.00
2022-10-11T21:41:09.433Z,102330.66
2022-10-11T21:43:38.073Z,102318.53
2022-10-11T21:46:11.602Z,102318.34
2022-10-11T21:48:38.449Z,102327.06
2022-10-11T21:51:05.313Z,102325.44
2022-10-11T21:53:32.105Z,102333.09
2022-10-11T21:56:01.550Z,102333.56
2022-10-11T21:58:28.466Z,102330.22
2022-10-11T22:00:55.039Z,102325.84
2022-10-11T22:03:21.685Z,102336.97
2022-10-11T22:05:48.551Z,102335.88
2022-10-11T22:08:15.554Z,102333.13
2022-10-11T22:10:52.127Z,102326.84
2022-10-11T22:13:18.668Z,102337.31
2022-10-11T22:15:45.186Z,102330.06
2022-10-11T22:18:11.714Z,102330.06
2022-10-11T22:20:38.243Z,102331.03
2022-10-11T22:23:04.779Z,102337.31
2022-10-11T22:25:31.311Z,102336.84
2022-10-11T22:27:57.858Z,102338.78
2022-10-11T22:30:24.396Z,102333.16
2022-10-11T22:32:51.832Z,102339.31
2022-10-11T22:35:19.122Z,102340.78
2022-10-11T22:37:45.743Z,102337.44
2022-10-11T22:40:12.301Z,102339.63
2022-10-11T22:42:38.816Z,102336.56
2022-10-11T22:45:05.730Z,102333.63
2022-10-11T22:47:32.274Z,102330.19
2022-10-11T22:49:58.819Z,102331.03
2022-10-11T22:52:25.384Z,102333.28
2022-10-11T22:54:51.931Z,102329.31
2022-10-11T22:57:18.478Z,102329.06
2022-10-11T22:59:45.004Z,102335.38
2022-10-11T23:02:11.549Z,102327.66
2022-10-11T23:04:38.061Z,102326.16
2022-10-11T23:07:05.208Z,102327.44
2022-10-11T23:09:31.904Z,102330.38
2022-10-11T23:11:59.265Z,102327.56
2022-10-11T23:14:25.817Z,102329.63
2022-10-11T23:16:52.861Z,102320.16
2022-10-11T23:19:19.553Z,102335.03
2022-10-11T23:21:46.775Z,102322.38
2022-10-11T23:24:13.509Z,102330.66
2022-10-11T23:26:40.038Z,102337.66
2022-10-11T23:29:06.567Z,102339.69
2022-10-11T23:31:33.088Z,102333.63
2022-10-11T23:33:59.618Z,102331.88
2022-10-11T23:36:26.195Z,102332.44
2022-10-11T23:38:54.401Z,102328.09
2022-10-11T23:41:21.930Z,102336.78
2022-10-11T23:43:48.458Z,102333.91
2022-10-11T23:46:15.059Z,102346.16
2022-10-11T23:48:41.700Z,102336.78
2022-10-11T23:51:08.304Z,102334.03
2022-10-11T23:53:35.263Z,102339.44
2022-10-11T23:56:02.377Z,102341.97
2022-10-11T23:58:28.967Z,102346.16
